sensor_id;sensor_type;location;lat;lon;timestamp;P1;durP1;ratioP1;P2;durP2;ratioP2
26191;SDS011;13935;55.672;37.764;2023-05-27T00:00:11;21.90;;;16.77;;
26191;SDS011;13935;55.672;37.764;2023-05-27T00:01:16;22.95;;;16.33;;
26191;SDS011;13935;55.672;37.764;2023-05-27T00:02:19;20.73;;;15.52;;
26191;SDS011;13935;55.672;37.764;2023-05-27T00:03:21;21.00;;;17.05;;
26191;SDS011;13935;55.672;37.764;2023-05-27T00:04:23;21.45;;;16.60;;
26191;SDS011;13935;55.672;37.764;2023-05-27T00:05:26;22.38;;;16.15;;
26191;SDS011;13935;55.672;37.764;2023-05-27T00:06:28;23.13;;;16.63;;
26191;SDS011;13935;55.672;37.764;2023-05-27T00:07:30;27.20;;;17.15;;
26191;SDS011;13935;55.672;37.764;2023-05-27T00:08:33;26.38;;;16.55;;
26191;SDS011;13935;55.672;37.764;2023-05-27T00:09:35;24.38;;;16.88;;
26191;SDS011;13935;55.672;37.764;2023-05-27T00:10:37;22.42;;;17.15;;
26191;SDS011;13935;55.672;37.764;2023-05-27T00:11:39;20.30;;;16.92;;
26191;SDS011;13935;55.672;37.764;2023-05-27T00:12:41;22.77;;;16.85;;
26191;SDS011;13935;55.672;37.764;2023-05-27T00:13:43;21.30;;;16.20;;
26191;SDS011;13935;55.672;37.764;2023-05-27T00:14:46;21.73;;;16.92;;
26191;SDS011;13935;55.672;37.764;2023-05-27T00:15:48;25.15;;;16.83;;
26191;SDS011;13935;55.672;37.764;2023-05-27T00:16:50;26.45;;;18.42;;
26191;SDS011;13935;55.672;37.764;2023-05-27T00:17:53;23.08;;;18.35;;
26191;SDS011;13935;55.672;37.764;2023-05-27T00:18:56;22.08;;;17.35;;
26191;SDS011;13935;55.672;37.764;2023-05-27T00:19:58;25.83;;;16.80;;
26191;SDS011;13935;55.672;37.764;2023-05-27T00:21:08;25.75;;;16.60;;
26191;SDS011;13935;55.672;37.764;2023-05-27T00:22:10;25.70;;;17.33;;
26191;SDS011;13935;55.672;37.764;2023-05-27T00:23:12;23.45;;;16.70;;
26191;SDS011;13935;55.672;37.764;2023-05-27T00:24:14;22.77;;;16.13;;
26191;SDS011;13935;55.672;37.764;2023-05-27T00:25:16;23.70;;;16.77;;
26191;SDS011;13935;55.672;37.764;2023-05-27T00:26:22;22.13;;;16.50;;
26191;SDS011;13935;55.672;37.764;2023-05-27T00:27:26;22.50;;;16.02;;
26191;SDS011;13935;55.672;37.764;2023-05-27T00:28:29;21.45;;;16.98;;
26191;SDS011;13935;55.672;37.764;2023-05-27T00:29:33;22.42;;;16.50;;
26191;SDS011;13935;55.672;37.764;2023-05-27T00:30:36;20.23;;;17.08;;
26191;SDS011;13935;55.672;37.764;2023-05-27T00:31:38;22.83;;;16.38;;
26191;SDS011;13935;55.672;37.764;2023-05-27T00:32:41;25.25;;;17.00;;
26191;SDS011;13935;55.672;37.764;2023-05-27T00:33:48;21.38;;;15.75;;
26191;SDS011;13935;55.672;37.764;2023-05-27T00:34:51;21.85;;;16.10;;
26191;SDS011;13935;55.672;37.764;2023-05-27T00:35:53;27.08;;;16.02;;
26191;SDS011;13935;55.672;37.764;2023-05-27T00:36:55;21.30;;;16.52;;
26191;SDS011;13935;55.672;37.764;2023-05-27T00:37:58;23.77;;;16.92;;
26191;SDS011;13935;55.672;37.764;2023-05-27T00:39:02;23.38;;;17.55;;
26191;SDS011;13935;55.672;37.764;2023-05-27T00:40:04;20.52;;;15.68;;
26191;SDS011;13935;55.672;37.764;2023-05-27T00:41:10;19.92;;;16.17;;
26191;SDS011;13935;55.672;37.764;2023-05-27T00:42:14;20.58;;;16.17;;
26191;SDS011;13935;55.672;37.764;2023-05-27T00:43:17;25.42;;;16.55;;
26191;SDS011;13935;55.672;37.764;2023-05-27T00:44:19;21.15;;;16.65;;
26191;SDS011;13935;55.672;37.764;2023-05-27T00:45:22;20.17;;;16.25;;
26191;SDS011;13935;55.672;37.764;2023-05-27T00:46:24;24.70;;;17.05;;
26191;SDS011;13935;55.672;37.764;2023-05-27T00:47:26;23.40;;;16.75;;
26191;SDS011;13935;55.672;37.764;2023-05-27T00:48:32;23.83;;;17.17;;
26191;SDS011;13935;55.672;37.764;2023-05-27T00:49:36;27.10;;;17.20;;
26191;SDS011;13935;55.672;37.764;2023-05-27T00:50:39;24.38;;;16.30;;
26191;SDS011;13935;55.672;37.764;2023-05-27T00:51:41;22.85;;;16.88;;
26191;SDS011;13935;55.672;37.764;2023-05-27T00:52:43;19.23;;;16.45;;
26191;SDS011;13935;55.672;37.764;2023-05-27T00:53:46;21.85;;;16.88;;
26191;SDS011;13935;55.672;37.764;2023-05-27T00:54:48;27.23;;;17.83;;
26191;SDS011;13935;55.672;37.764;2023-05-27T00:55:55;24.45;;;16.60;;
26191;SDS011;13935;55.672;37.764;2023-05-27T00:57:00;20.10;;;16.70;;
26191;SDS011;13935;55.672;37.764;2023-05-27T00:58:04;24.00;;;18.10;;
26191;SDS011;13935;55.672;37.764;2023-05-27T00:59:09;22.45;;;16.58;;
26191;SDS011;13935;55.672;37.764;2023-05-27T01:00:12;22.30;;;17.05;;
26191;SDS011;13935;55.672;37.764;2023-05-27T01:01:15;23.70;;;16.63;;
26191;SDS011;13935;55.672;37.764;2023-05-27T01:02:18;19.63;;;16.02;;
26191;SDS011;13935;55.672;37.764;2023-05-27T01:03:22;21.70;;;16.75;;
26191;SDS011;13935;55.672;37.764;2023-05-27T01:04:25;22.83;;;16.20;;
26191;SDS011;13935;55.672;37.764;2023-05-27T01:05:27;20.95;;;15.80;;
26191;SDS011;13935;55.672;37.764;2023-05-27T01:08:05;20.05;;;15.02;;
26191;SDS011;13935;55.672;37.764;2023-05-27T01:09:20;19.88;;;16.00;;
26191;SDS011;13935;55.672;37.764;2023-05-27T01:10:33;18.55;;;15.60;;
26191;SDS011;13935;55.672;37.764;2023-05-27T01:11:44;20.58;;;15.20;;
26191;SDS011;13935;55.672;37.764;2023-05-27T01:12:58;21.17;;;15.85;;
26191;SDS011;13935;55.672;37.764;2023-05-27T01:14:04;19.30;;;15.60;;
26191;SDS011;13935;55.672;37.764;2023-05-27T01:15:12;18.92;;;15.57;;
26191;SDS011;13935;55.672;37.764;2023-05-27T01:16:15;18.75;;;14.85;;
26191;SDS011;13935;55.672;37.764;2023-05-27T01:17:18;19.00;;;14.13;;
26191;SDS011;13935;55.672;37.764;2023-05-27T01:18:21;21.88;;;14.20;;
26191;SDS011;13935;55.672;37.764;2023-05-27T01:19:30;19.48;;;14.82;;
26191;SDS011;13935;55.672;37.764;2023-05-27T01:20:35;20.02;;;14.35;;
26191;SDS011;13935;55.672;37.764;2023-05-27T01:21:43;20.15;;;15.27;;
26191;SDS011;13935;55.672;37.764;2023-05-27T01:22:49;19.17;;;14.50;;
26191;SDS011;13935;55.672;37.764;2023-05-27T01:24:01;18.48;;;13.88;;
26191;SDS011;13935;55.672;37.764;2023-05-27T01:25:05;24.25;;;14.27;;
26191;SDS011;13935;55.672;37.764;2023-05-27T01:26:08;18.80;;;14.23;;
26191;SDS011;13935;55.672;37.764;2023-05-27T01:27:11;17.67;;;14.23;;
26191;SDS011;13935;55.672;37.764;2023-05-27T01:28:17;19.45;;;14.50;;
26191;SDS011;13935;55.672;37.764;2023-05-27T01:29:19;16.85;;;14.27;;
26191;SDS011;13935;55.672;37.764;2023-05-27T01:30:22;19.35;;;14.10;;
26191;SDS011;13935;55.672;37.764;2023-05-27T01:31:30;20.02;;;14.32;;
26191;SDS011;13935;55.672;37.764;2023-05-27T01:32:55;20.85;;;14.60;;
26191;SDS011;13935;55.672;37.764;2023-05-27T01:34:05;21.52;;;13.85;;
26191;SDS011;13935;55.672;37.764;2023-05-27T01:35:27;18.05;;;14.52;;
26191;SDS011;13935;55.672;37.764;2023-05-27T01:36:36;19.35;;;14.57;;
26191;SDS011;13935;55.672;37.764;2023-05-27T01:37:41;20.80;;;14.55;;
26191;SDS011;13935;55.672;37.764;2023-05-27T01:38:45;21.15;;;14.60;;
26191;SDS011;13935;55.672;37.764;2023-05-27T01:39:49;19.40;;;15.43;;
26191;SDS011;13935;55.672;37.764;2023-05-27T01:40:53;20.33;;;15.15;;
26191;SDS011;13935;55.672;37.764;2023-05-27T01:41:55;22.90;;;15.77;;
26191;SDS011;13935;55.672;37.764;2023-05-27T01:42:58;19.33;;;15.40;;
26191;SDS011;13935;55.672;37.764;2023-05-27T01:44:04;17.02;;;14.85;;
26191;SDS011;13935;55.672;37.764;2023-05-27T01:45:07;16.88;;;14.57;;
26191;SDS011;13935;55.672;37.764;2023-05-27T01:46:10;21.02;;;14.77;;
26191;SDS011;13935;55.672;37.764;2023-05-27T01:47:13;19.10;;;14.95;;
26191;SDS011;13935;55.672;37.764;2023-05-27T01:48:14;21.15;;;15.48;;
26191;SDS011;13935;55.672;37.764;2023-05-27T01:49:18;17.58;;;14.35;;
26191;SDS011;13935;55.672;37.764;2023-05-27T01:50:21;20.70;;;14.63;;
26191;SDS011;13935;55.672;37.764;2023-05-27T01:51:23;21.48;;;14.80;;
26191;SDS011;13935;55.672;37.764;2023-05-27T01:52:25;16.13;;;13.35;;
26191;SDS011;13935;55.672;37.764;2023-05-27T01:53:28;21.23;;;14.63;;
26191;SDS011;13935;55.672;37.764;2023-05-27T01:54:30;19.40;;;14.57;;
26191;SDS011;13935;55.672;37.764;2023-05-27T01:55:33;23.10;;;14.38;;
26191;SDS011;13935;55.672;37.764;2023-05-27T01:56:35;19.98;;;15.00;;
26191;SDS011;13935;55.672;37.764;2023-05-27T01:57:37;19.02;;;14.45;;
26191;SDS011;13935;55.672;37.764;2023-05-27T01:58:43;17.40;;;13.40;;
26191;SDS011;13935;55.672;37.764;2023-05-27T01:59:45;21.58;;;14.32;;
26191;SDS011;13935;55.672;37.764;2023-05-27T02:00:47;16.50;;;13.18;;
26191;SDS011;13935;55.672;37.764;2023-05-27T02:01:49;15.77;;;13.50;;
26191;SDS011;13935;55.672;37.764;2023-05-27T02:02:51;20.05;;;13.65;;
26191;SDS011;13935;55.672;37.764;2023-05-27T02:03:57;21.00;;;13.70;;
26191;SDS011;13935;55.672;37.764;2023-05-27T02:05:00;20.02;;;13.77;;
26191;SDS011;13935;55.672;37.764;2023-05-27T02:06:04;16.92;;;13.57;;
26191;SDS011;13935;55.672;37.764;2023-05-27T02:07:06;17.85;;;13.70;;
26191;SDS011;13935;55.672;37.764;2023-05-27T02:08:08;19.35;;;14.18;;
26191;SDS011;13935;55.672;37.764;2023-05-27T02:09:11;17.25;;;13.68;;
26191;SDS011;13935;55.672;37.764;2023-05-27T02:10:14;18.30;;;13.77;;
26191;SDS011;13935;55.672;37.764;2023-05-27T02:11:16;21.08;;;13.93;;
26191;SDS011;13935;55.672;37.764;2023-05-27T02:12:18;17.38;;;13.35;;
26191;SDS011;13935;55.672;37.764;2023-05-27T02:13:20;16.27;;;13.30;;
26191;SDS011;13935;55.672;37.764;2023-05-27T02:14:23;21.52;;;14.20;;
26191;SDS011;13935;55.672;37.764;2023-05-27T02:15:25;18.08;;;14.40;;
26191;SDS011;13935;55.672;37.764;2023-05-27T02:16:28;14.63;;;12.88;;
26191;SDS011;13935;55.672;37.764;2023-05-27T02:17:32;17.25;;;13.20;;
26191;SDS011;13935;55.672;37.764;2023-05-27T02:18:35;17.52;;;12.93;;
26191;SDS011;13935;55.672;37.764;2023-05-27T02:19:37;15.25;;;13.65;;
26191;SDS011;13935;55.672;37.764;2023-05-27T02:20:44;16.40;;;13.23;;
26191;SDS011;13935;55.672;37.764;2023-05-27T02:21:47;15.82;;;12.63;;
26191;SDS011;13935;55.672;37.764;2023-05-27T02:22:52;14.38;;;12.63;;
26191;SDS011;13935;55.672;37.764;2023-05-27T02:23:54;15.23;;;12.43;;
26191;SDS011;13935;55.672;37.764;2023-05-27T02:24:56;15.73;;;12.27;;
26191;SDS011;13935;55.672;37.764;2023-05-27T02:25:58;16.98;;;13.30;;
26191;SDS011;13935;55.672;37.764;2023-05-27T02:27:03;15.73;;;13.50;;
26191;SDS011;13935;55.672;37.764;2023-05-27T02:28:05;15.02;;;12.50;;
26191;SDS011;13935;55.672;37.764;2023-05-27T02:29:08;17.15;;;12.68;;
26191;SDS011;13935;55.672;37.764;2023-05-27T02:30:10;17.80;;;12.85;;
26191;SDS011;13935;55.672;37.764;2023-05-27T02:31:13;14.95;;;12.38;;
26191;SDS011;13935;55.672;37.764;2023-05-27T02:32:15;14.15;;;12.57;;
26191;SDS011;13935;55.672;37.764;2023-05-27T02:33:18;16.50;;;12.60;;
26191;SDS011;13935;55.672;37.764;2023-05-27T02:34:20;14.95;;;12.98;;
26191;SDS011;13935;55.672;37.764;2023-05-27T02:35:24;15.07;;;12.50;;
26191;SDS011;13935;55.672;37.764;2023-05-27T02:36:26;14.73;;;11.70;;
26191;SDS011;13935;55.672;37.764;2023-05-27T02:37:29;14.43;;;12.38;;
26191;SDS011;13935;55.672;37.764;2023-05-27T02:38:33;16.98;;;12.77;;
26191;SDS011;13935;55.672;37.764;2023-05-27T02:39:35;13.77;;;12.27;;
26191;SDS011;13935;55.672;37.764;2023-05-27T02:40:37;19.75;;;13.55;;
26191;SDS011;13935;55.672;37.764;2023-05-27T02:41:39;17.10;;;12.68;;
26191;SDS011;13935;55.672;37.764;2023-05-27T02:42:41;15.80;;;12.20;;
26191;SDS011;13935;55.672;37.764;2023-05-27T02:43:43;16.38;;;12.23;;
26191;SDS011;13935;55.672;37.764;2023-05-27T02:44:45;18.38;;;12.93;;
26191;SDS011;13935;55.672;37.764;2023-05-27T02:45:47;14.43;;;12.35;;
26191;SDS011;13935;55.672;37.764;2023-05-27T02:46:51;14.68;;;13.02;;
26191;SDS011;13935;55.672;37.764;2023-05-27T02:47:53;15.48;;;12.15;;
26191;SDS011;13935;55.672;37.764;2023-05-27T02:48:58;16.95;;;11.90;;
26191;SDS011;13935;55.672;37.764;2023-05-27T02:50:00;15.07;;;12.30;;
26191;SDS011;13935;55.672;37.764;2023-05-27T02:51:04;13.82;;;12.13;;
26191;SDS011;13935;55.672;37.764;2023-05-27T02:52:06;18.23;;;12.48;;
26191;SDS011;13935;55.672;37.764;2023-05-27T02:53:08;16.15;;;12.38;;
26191;SDS011;13935;55.672;37.764;2023-05-27T02:54:11;16.33;;;12.80;;
26191;SDS011;13935;55.672;37.764;2023-05-27T02:55:14;15.73;;;12.20;;
26191;SDS011;13935;55.672;37.764;2023-05-27T02:56:17;15.57;;;12.25;;
26191;SDS011;13935;55.672;37.764;2023-05-27T02:57:19;13.15;;;11.50;;
26191;SDS011;13935;55.672;37.764;2023-05-27T02:58:21;16.70;;;12.15;;
26191;SDS011;13935;55.672;37.764;2023-05-27T02:59:25;15.20;;;12.57;;
26191;SDS011;13935;55.672;37.764;2023-05-27T03:00:27;16.13;;;12.07;;
26191;SDS011;13935;55.672;37.764;2023-05-27T03:01:29;16.88;;;12.60;;
26191;SDS011;13935;55.672;37.764;2023-05-27T03:02:31;16.38;;;11.73;;
26191;SDS011;13935;55.672;37.764;2023-05-27T03:03:34;13.43;;;11.95;;
26191;SDS011;13935;55.672;37.764;2023-05-27T03:04:37;17.05;;;12.05;;
26191;SDS011;13935;55.672;37.764;2023-05-27T03:05:40;14.60;;;12.07;;
26191;SDS011;13935;55.672;37.764;2023-05-27T03:06:42;13.27;;;11.77;;
26191;SDS011;13935;55.672;37.764;2023-05-27T03:07:44;16.25;;;12.23;;
26191;SDS011;13935;55.672;37.764;2023-05-27T03:08:46;22.88;;;12.40;;
26191;SDS011;13935;55.672;37.764;2023-05-27T03:09:49;15.30;;;11.68;;
26191;SDS011;13935;55.672;37.764;2023-05-27T03:10:51;14.35;;;10.85;;
26191;SDS011;13935;55.672;37.764;2023-05-27T03:11:53;18.90;;;11.77;;
26191;SDS011;13935;55.672;37.764;2023-05-27T03:12:55;15.52;;;11.32;;
26191;SDS011;13935;55.672;37.764;2023-05-27T03:13:58;14.95;;;11.75;;
26191;SDS011;13935;55.672;37.764;2023-05-27T03:15:00;16.60;;;12.65;;
26191;SDS011;13935;55.672;37.764;2023-05-27T03:16:06;18.10;;;12.13;;
26191;SDS011;13935;55.672;37.764;2023-05-27T03:17:08;16.13;;;11.85;;
26191;SDS011;13935;55.672;37.764;2023-05-27T03:18:10;13.30;;;11.75;;
26191;SDS011;13935;55.672;37.764;2023-05-27T03:19:13;13.10;;;11.43;;
26191;SDS011;13935;55.672;37.764;2023-05-27T03:20:15;14.27;;;11.20;;
26191;SDS011;13935;55.672;37.764;2023-05-27T03:21:20;14.25;;;10.52;;
26191;SDS011;13935;55.672;37.764;2023-05-27T03:22:23;14.48;;;10.73;;
26191;SDS011;13935;55.672;37.764;2023-05-27T03:23:25;11.80;;;10.70;;
26191;SDS011;13935;55.672;37.764;2023-05-27T03:24:27;12.68;;;11.05;;
26191;SDS011;13935;55.672;37.764;2023-05-27T03:25:29;21.10;;;16.05;;
26191;SDS011;13935;55.672;37.764;2023-05-27T03:26:34;18.48;;;12.05;;
26191;SDS011;13935;55.672;37.764;2023-05-27T03:27:38;14.02;;;10.60;;
26191;SDS011;13935;55.672;37.764;2023-05-27T03:28:46;13.82;;;11.23;;
26191;SDS011;13935;55.672;37.764;2023-05-27T03:29:48;14.43;;;10.63;;
26191;SDS011;13935;55.672;37.764;2023-05-27T03:30:50;13.95;;;10.95;;
26191;SDS011;13935;55.672;37.764;2023-05-27T03:32:05;12.73;;;10.55;;
26191;SDS011;13935;55.672;37.764;2023-05-27T03:33:09;17.20;;;12.13;;
26191;SDS011;13935;55.672;37.764;2023-05-27T03:34:12;12.95;;;10.35;;
26191;SDS011;13935;55.672;37.764;2023-05-27T03:35:15;15.60;;;10.55;;
26191;SDS011;13935;55.672;37.764;2023-05-27T03:36:20;15.35;;;10.93;;
26191;SDS011;13935;55.672;37.764;2023-05-27T03:37:23;12.57;;;10.75;;
26191;SDS011;13935;55.672;37.764;2023-05-27T03:38:32;13.20;;;10.65;;
26191;SDS011;13935;55.672;37.764;2023-05-27T03:39:35;12.43;;;10.45;;
26191;SDS011;13935;55.672;37.764;2023-05-27T03:40:37;12.60;;;10.43;;
26191;SDS011;13935;55.672;37.764;2023-05-27T03:41:42;16.23;;;10.48;;
26191;SDS011;13935;55.672;37.764;2023-05-27T03:42:47;13.40;;;10.50;;
26191;SDS011;13935;55.672;37.764;2023-05-27T03:43:53;14.40;;;10.52;;
26191;SDS011;13935;55.672;37.764;2023-05-27T03:44:56;13.60;;;9.98;;
26191;SDS011;13935;55.672;37.764;2023-05-27T03:46:01;15.93;;;10.80;;
26191;SDS011;13935;55.672;37.764;2023-05-27T03:47:04;12.57;;;9.68;;
26191;SDS011;13935;55.672;37.764;2023-05-27T03:48:08;15.90;;;10.15;;
26191;SDS011;13935;55.672;37.764;2023-05-27T03:49:11;12.90;;;9.70;;
26191;SDS011;13935;55.672;37.764;2023-05-27T03:50:14;10.68;;;9.20;;
26191;SDS011;13935;55.672;37.764;2023-05-27T03:51:16;16.45;;;9.95;;
26191;SDS011;13935;55.672;37.764;2023-05-27T03:52:19;13.00;;;9.75;;
26191;SDS011;13935;55.672;37.764;2023-05-27T03:53:21;12.18;;;9.00;;
26191;SDS011;13935;55.672;37.764;2023-05-27T03:54:23;11.60;;;9.40;;
26191;SDS011;13935;55.672;37.764;2023-05-27T03:55:26;12.55;;;9.60;;
26191;SDS011;13935;55.672;37.764;2023-05-27T03:56:28;13.77;;;9.77;;
26191;SDS011;13935;55.672;37.764;2023-05-27T03:57:30;10.93;;;9.05;;
26191;SDS011;13935;55.672;37.764;2023-05-27T03:58:34;10.52;;;8.48;;
26191;SDS011;13935;55.672;37.764;2023-05-27T03:59:36;17.40;;;8.95;;
26191;SDS011;13935;55.672;37.764;2023-05-27T04:00:39;11.55;;;8.77;;
26191;SDS011;13935;55.672;37.764;2023-05-27T04:01:46;11.43;;;8.48;;
26191;SDS011;13935;55.672;37.764;2023-05-27T04:02:48;9.40;;;8.50;;
26191;SDS011;13935;55.672;37.764;2023-05-27T04:03:51;13.70;;;9.00;;
26191;SDS011;13935;55.672;37.764;2023-05-27T04:04:54;13.75;;;8.93;;
26191;SDS011;13935;55.672;37.764;2023-05-27T04:05:55;14.50;;;8.85;;
26191;SDS011;13935;55.672;37.764;2023-05-27T04:07:00;13.32;;;8.63;;
26191;SDS011;13935;55.672;37.764;2023-05-27T04:08:03;14.48;;;8.27;;
26191;SDS011;13935;55.672;37.764;2023-05-27T04:09:06;11.20;;;8.45;;
26191;SDS011;13935;55.672;37.764;2023-05-27T04:10:08;10.45;;;8.70;;
26191;SDS011;13935;55.672;37.764;2023-05-27T04:11:11;9.38;;;8.43;;
26191;SDS011;13935;55.672;37.764;2023-05-27T04:12:17;10.05;;;8.68;;
26191;SDS011;13935;55.672;37.764;2023-05-27T04:13:23;12.63;;;8.40;;
26191;SDS011;13935;55.672;37.764;2023-05-27T04:14:25;11.65;;;8.63;;
26191;SDS011;13935;55.672;37.764;2023-05-27T04:15:27;13.35;;;8.00;;
26191;SDS011;13935;55.672;37.764;2023-05-27T04:16:29;15.85;;;8.50;;
26191;SDS011;13935;55.672;37.764;2023-05-27T04:17:33;10.55;;;8.77;;
26191;SDS011;13935;55.672;37.764;2023-05-27T04:18:35;14.35;;;8.07;;
26191;SDS011;13935;55.672;37.764;2023-05-27T04:19:43;12.52;;;8.10;;
26191;SDS011;13935;55.672;37.764;2023-05-27T04:20:45;11.65;;;7.70;;
26191;SDS011;13935;55.672;37.764;2023-05-27T04:21:49;9.75;;;7.80;;
26191;SDS011;13935;55.672;37.764;2023-05-27T04:22:51;10.23;;;7.50;;
26191;SDS011;13935;55.672;37.764;2023-05-27T04:23:54;9.63;;;7.55;;
26191;SDS011;13935;55.672;37.764;2023-05-27T04:24:57;12.10;;;7.35;;
26191;SDS011;13935;55.672;37.764;2023-05-27T04:26:07;10.18;;;7.30;;
26191;SDS011;13935;55.672;37.764;2023-05-27T04:27:13;9.93;;;7.10;;
26191;SDS011;13935;55.672;37.764;2023-05-27T04:28:21;12.80;;;7.30;;
26191;SDS011;13935;55.672;37.764;2023-05-27T04:29:26;9.52;;;7.45;;
26191;SDS011;13935;55.672;37.764;2023-05-27T04:30:32;16.48;;;7.75;;
26191;SDS011;13935;55.672;37.764;2023-05-27T04:31:36;10.30;;;7.55;;
26191;SDS011;13935;55.672;37.764;2023-05-27T04:32:44;11.38;;;7.07;;
26191;SDS011;13935;55.672;37.764;2023-05-27T04:33:46;8.88;;;7.07;;
26191;SDS011;13935;55.672;37.764;2023-05-27T04:34:51;8.88;;;6.90;;
26191;SDS011;13935;55.672;37.764;2023-05-27T04:35:53;10.23;;;6.97;;
26191;SDS011;13935;55.672;37.764;2023-05-27T04:37:00;7.68;;;6.85;;
26191;SDS011;13935;55.672;37.764;2023-05-27T04:38:02;10.15;;;7.07;;
26191;SDS011;13935;55.672;37.764;2023-05-27T04:39:15;12.10;;;7.65;;
26191;SDS011;13935;55.672;37.764;2023-05-27T04:40:19;8.30;;;6.80;;
26191;SDS011;13935;55.672;37.764;2023-05-27T04:41:42;8.30;;;6.80;;
26191;SDS011;13935;55.672;37.764;2023-05-27T04:42:47;10.45;;;6.82;;
26191;SDS011;13935;55.672;37.764;2023-05-27T04:43:49;12.55;;;6.95;;
26191;SDS011;13935;55.672;37.764;2023-05-27T04:45:00;10.00;;;6.82;;
26191;SDS011;13935;55.672;37.764;2023-05-27T04:47:08;10.90;;;6.88;;
26191;SDS011;13935;55.672;37.764;2023-05-27T04:48:11;11.13;;;7.03;;
26191;SDS011;13935;55.672;37.764;2023-05-27T04:49:13;9.18;;;6.90;;
26191;SDS011;13935;55.672;37.764;2023-05-27T04:50:16;11.07;;;7.20;;
26191;SDS011;13935;55.672;37.764;2023-05-27T04:51:18;12.10;;;6.72;;
26191;SDS011;13935;55.672;37.764;2023-05-27T04:52:22;12.38;;;6.82;;
26191;SDS011;13935;55.672;37.764;2023-05-27T04:53:26;11.65;;;6.60;;
26191;SDS011;13935;55.672;37.764;2023-05-27T04:54:28;9.85;;;7.65;;
26191;SDS011;13935;55.672;37.764;2023-05-27T04:55:33;12.77;;;7.18;;
26191;SDS011;13935;55.672;37.764;2023-05-27T04:56:35;12.60;;;7.43;;
26191;SDS011;13935;55.672;37.764;2023-05-27T04:57:38;10.70;;;6.93;;
26191;SDS011;13935;55.672;37.764;2023-05-27T04:58:46;15.32;;;6.80;;
26191;SDS011;13935;55.672;37.764;2023-05-27T04:59:56;14.05;;;7.18;;
26191;SDS011;13935;55.672;37.764;2023-05-27T05:01:08;11.20;;;7.10;;
26191;SDS011;13935;55.672;37.764;2023-05-27T05:02:26;6.90;;;5.93;;
26191;SDS011;13935;55.672;37.764;2023-05-27T05:03:44;9.77;;;6.30;;
26191;SDS011;13935;55.672;37.764;2023-05-27T05:04:56;11.38;;;6.13;;
26191;SDS011;13935;55.672;37.764;2023-05-27T05:05:57;7.68;;;5.93;;
26191;SDS011;13935;55.672;37.764;2023-05-27T05:06:59;10.23;;;5.78;;
26191;SDS011;13935;55.672;37.764;2023-05-27T05:08:02;9.52;;;6.30;;
26191;SDS011;13935;55.672;37.764;2023-05-27T05:09:08;10.25;;;6.32;;
26191;SDS011;13935;55.672;37.764;2023-05-27T05:10:12;10.43;;;6.13;;
26191;SDS011;13935;55.672;37.764;2023-05-27T05:11:22;7.80;;;5.70;;
26191;SDS011;13935;55.672;37.764;2023-05-27T05:12:24;11.50;;;6.05;;
26191;SDS011;13935;55.672;37.764;2023-05-27T05:13:27;7.30;;;6.03;;
26191;SDS011;13935;55.672;37.764;2023-05-27T05:14:32;9.18;;;6.13;;
26191;SDS011;13935;55.672;37.764;2023-05-27T05:15:34;9.73;;;6.40;;
26191;SDS011;13935;55.672;37.764;2023-05-27T05:16:37;10.50;;;6.28;;
26191;SDS011;13935;55.672;37.764;2023-05-27T05:17:39;9.15;;;5.82;;
26191;SDS011;13935;55.672;37.764;2023-05-27T05:18:42;6.78;;;5.80;;
26191;SDS011;13935;55.672;37.764;2023-05-27T05:19:46;10.80;;;6.32;;
26191;SDS011;13935;55.672;37.764;2023-05-27T05:20:48;8.65;;;5.60;;
26191;SDS011;13935;55.672;37.764;2023-05-27T05:21:55;7.45;;;5.82;;
26191;SDS011;13935;55.672;37.764;2023-05-27T05:22:58;14.15;;;6.20;;
26191;SDS011;13935;55.672;37.764;2023-05-27T05:24:00;9.15;;;5.97;;
26191;SDS011;13935;55.672;37.764;2023-05-27T05:25:04;6.63;;;5.38;;
26191;SDS011;13935;55.672;37.764;2023-05-27T05:26:12;8.85;;;5.50;;
26191;SDS011;13935;55.672;37.764;2023-05-27T05:27:17;12.95;;;6.07;;
26191;SDS011;13935;55.672;37.764;2023-05-27T05:28:22;10.05;;;6.20;;
26191;SDS011;13935;55.672;37.764;2023-05-27T05:29:25;13.88;;;6.30;;
26191;SDS011;13935;55.672;37.764;2023-05-27T05:30:27;10.63;;;5.68;;
26191;SDS011;13935;55.672;37.764;2023-05-27T05:31:32;9.35;;;5.95;;
26191;SDS011;13935;55.672;37.764;2023-05-27T05:32:34;7.50;;;5.82;;
26191;SDS011;13935;55.672;37.764;2023-05-27T05:33:36;8.25;;;6.07;;
26191;SDS011;13935;55.672;37.764;2023-05-27T05:34:40;9.90;;;5.78;;
26191;SDS011;13935;55.672;37.764;2023-05-27T05:35:44;13.73;;;6.13;;
26191;SDS011;13935;55.672;37.764;2023-05-27T05:36:54;9.13;;;5.53;;
26191;SDS011;13935;55.672;37.764;2023-05-27T05:37:57;12.80;;;5.45;;
26191;SDS011;13935;55.672;37.764;2023-05-27T05:38:59;10.85;;;6.05;;
26191;SDS011;13935;55.672;37.764;2023-05-27T05:40:01;10.13;;;5.45;;
26191;SDS011;13935;55.672;37.764;2023-05-27T05:41:07;10.88;;;5.95;;
26191;SDS011;13935;55.672;37.764;2023-05-27T05:42:11;9.93;;;5.75;;
26191;SDS011;13935;55.672;37.764;2023-05-27T05:43:12;13.45;;;6.05;;
26191;SDS011;13935;55.672;37.764;2023-05-27T05:44:15;12.52;;;6.00;;
26191;SDS011;13935;55.672;37.764;2023-05-27T05:45:18;9.38;;;5.50;;
26191;SDS011;13935;55.672;37.764;2023-05-27T05:46:21;8.13;;;5.00;;
26191;SDS011;13935;55.672;37.764;2023-05-27T05:47:24;13.63;;;6.22;;
26191;SDS011;13935;55.672;37.764;2023-05-27T05:48:37;12.77;;;7.80;;
26191;SDS011;13935;55.672;37.764;2023-05-27T05:49:42;7.32;;;4.93;;
26191;SDS011;13935;55.672;37.764;2023-05-27T05:50:46;12.85;;;5.80;;
26191;SDS011;13935;55.672;37.764;2023-05-27T05:51:49;8.32;;;4.80;;
26191;SDS011;13935;55.672;37.764;2023-05-27T05:52:51;11.20;;;5.85;;
26191;SDS011;13935;55.672;37.764;2023-05-27T05:53:54;10.95;;;5.13;;
26191;SDS011;13935;55.672;37.764;2023-05-27T05:54:57;13.00;;;5.28;;
26191;SDS011;13935;55.672;37.764;2023-05-27T05:55:59;9.90;;;5.25;;
26191;SDS011;13935;55.672;37.764;2023-05-27T05:57:02;10.82;;;4.95;;
26191;SDS011;13935;55.672;37.764;2023-05-27T05:58:04;8.18;;;4.95;;
26191;SDS011;13935;55.672;37.764;2023-05-27T05:59:07;11.38;;;5.10;;
26191;SDS011;13935;55.672;37.764;2023-05-27T06:00:09;12.77;;;5.95;;
26191;SDS011;13935;55.672;37.764;2023-05-27T06:01:19;18.50;;;5.45;;
26191;SDS011;13935;55.672;37.764;2023-05-27T06:02:21;9.32;;;5.03;;
26191;SDS011;13935;55.672;37.764;2023-05-27T06:03:23;7.90;;;5.15;;
26191;SDS011;13935;55.672;37.764;2023-05-27T06:04:30;13.80;;;5.45;;
26191;SDS011;13935;55.672;37.764;2023-05-27T06:05:32;12.05;;;6.13;;
26191;SDS011;13935;55.672;37.764;2023-05-27T06:06:34;8.85;;;4.88;;
26191;SDS011;13935;55.672;37.764;2023-05-27T06:07:56;10.82;;;5.30;;
26191;SDS011;13935;55.672;37.764;2023-05-27T06:08:57;8.00;;;4.85;;
26191;SDS011;13935;55.672;37.764;2023-05-27T06:10:04;9.43;;;5.40;;
26191;SDS011;13935;55.672;37.764;2023-05-27T06:11:13;12.88;;;5.53;;
26191;SDS011;13935;55.672;37.764;2023-05-27T06:12:18;10.80;;;4.95;;
26191;SDS011;13935;55.672;37.764;2023-05-27T06:13:21;7.30;;;4.60;;
26191;SDS011;13935;55.672;37.764;2023-05-27T06:14:26;8.60;;;5.00;;